Hummelstown, Pennsylvania
Current Conditions -  °F | °C
As of 3:56 AM on Friday 28 Nov 2014 (Local Time) from KMDT Reporting Station
Few Clouds Few Clouds  
Wind Chill: 25°   Ceiling: Unl
Heat Index: 32°   Visibility: 10mi
Dew Point: 22°   Wind: 8mph
Humidity: 66%   Direction: 290°WNW
Pressure: 30.15"   Gusts: NA
Location:  40.27°N, 76.71°W
Report Text: KMDT 280856Z 29007KT 10SM FEW039 00/M06 A3015 RMK AO2 SLP214 T00001056 51006
Loading
Personal Weather Stations






























Interactive Weather Map New forecast layout! Learn more

10-Day Weather Forecast

Advertisements
Track Severe Weather on mobile